< < Back
Terminal Aerodrome Forecast


Current Version              Previous Versions:   1  2  3  4  5  6  7  8  9  

Terminal Aerodrome Forecast

079
FTUS42 KGSP 310537
TAFHKY
TAF
KHKY 310537Z 3106/0106 04003KT P6SM SCT250
     FM311500 35005KT P6SM FEW060 SCT110 BKN250
     FM312100 00000KT P6SM VCSH SCT060 BKN110
     FM010300 31003KT P6SM -RA OVC027=

Latest METAR

928
SAUS70 KWBC 310500 RRK
MTRHKY
METAR KHKY 310453Z AUTO 00000KT 10SM CLR 07/04 A2998 RMK AO2 SLP140
T00670039 401830050 $


USA.gov is the U.S. government's official web portal to all federal, state and local government web resources and services.